createdAt,value
2018-02-21T00:02:06.333Z,0.20
2018-02-21T00:04:34.775Z,0.20
2018-02-21T00:07:03.905Z,0.30
2018-02-21T00:09:32.273Z,0.30
2018-02-21T00:12:00.678Z,0.30
2018-02-21T00:14:29.054Z,0.20
2018-02-21T00:16:57.462Z,0.20
2018-02-21T00:19:25.837Z,0.20
2018-02-21T00:21:54.481Z,0.20
2018-02-21T00:24:22.863Z,0.20
2018-02-21T00:26:51.240Z,0.20
2018-02-21T00:29:19.638Z,0.10
2018-02-21T00:31:48.033Z,0.20
2018-02-21T00:34:16.432Z,0.20
2018-02-21T00:36:45.574Z,0.20
2018-02-21T00:39:14.151Z,0.10
2018-02-21T00:41:42.567Z,0.20
2018-02-21T00:44:10.938Z,0.20
2018-02-21T00:46:39.335Z,0.30
2018-02-21T00:49:07.718Z,0.30
2018-02-21T00:51:36.110Z,0.30
2018-02-21T00:54:05.251Z,0.20
2018-02-21T00:56:33.662Z,0.20
2018-02-21T00:59:02.800Z,0.30
2018-02-21T01:01:31.162Z,0.30
2018-02-21T01:04:00.313Z,0.40
2018-02-21T01:06:28.682Z,0.30
2018-02-21T01:08:57.079Z,0.30
2018-02-21T01:11:25.448Z,0.30
2018-02-21T01:13:54.006Z,0.30
2018-02-21T01:16:22.373Z,0.20
2018-02-21T01:18:50.748Z,0.30
2018-02-21T01:21:20.526Z,0.30
2018-02-21T01:23:49.674Z,0.30
2018-02-21T01:26:18.066Z,0.30
2018-02-21T01:28:46.442Z,0.30
2018-02-21T01:31:14.854Z,0.30
2018-02-21T01:33:43.226Z,0.30
2018-02-21T01:36:11.598Z,0.40
2018-02-21T01:38:40.006Z,0.40
2018-02-21T01:41:09.141Z,0.40
2018-02-21T01:43:37.541Z,0.40
2018-02-21T01:46:05.913Z,0.40
2018-02-21T01:48:34.486Z,0.40
2018-02-21T01:51:02.858Z,0.40
2018-02-21T01:53:31.224Z,0.50
2018-02-21T01:55:59.613Z,0.50
2018-02-21T01:58:27.989Z,0.50
2018-02-21T02:00:56.382Z,0.40
2018-02-21T02:03:24.743Z,0.50
2018-02-21T02:05:53.334Z,0.40
2018-02-21T02:08:21.695Z,0.40
2018-02-21T02:10:50.082Z,0.50
2018-02-21T02:13:18.481Z,0.50
2018-02-21T02:15:46.858Z,0.50
2018-02-21T02:18:15.245Z,0.60
2018-02-21T02:20:43.626Z,0.50
2018-02-21T02:23:12.190Z,0.60
2018-02-21T02:25:40.561Z,0.50
2018-02-21T02:28:08.937Z,0.50
2018-02-21T02:30:37.330Z,0.50
2018-02-21T02:33:05.694Z,0.40
2018-02-21T02:35:34.088Z,0.40
2018-02-21T02:38:02.496Z,0.50
2018-02-21T02:40:30.880Z,0.50
2018-02-21T02:42:59.249Z,0.50
2018-02-21T02:45:27.900Z,0.50
2018-02-21T02:47:56.277Z,0.60
2018-02-21T02:50:24.654Z,0.50
2018-02-21T02:52:53.050Z,0.60
2018-02-21T02:55:21.427Z,0.60
2018-02-21T02:57:49.823Z,0.60
2018-02-21T03:00:18.202Z,0.60
2018-02-21T03:02:46.630Z,0.60
2018-02-21T03:05:14.992Z,0.60
2018-02-21T03:07:44.127Z,0.50
2018-02-21T03:10:13.046Z,0.50
2018-02-21T03:12:41.428Z,0.60
2018-02-21T03:15:09.824Z,0.60
2018-02-21T03:17:38.958Z,0.60
2018-02-21T03:20:07.556Z,0.60
2018-02-21T03:22:35.941Z,0.70
2018-02-21T03:25:07.034Z,0.70
2018-02-21T03:27:35.656Z,0.70
2018-02-21T03:30:04.018Z,0.70
2018-02-21T03:32:32.472Z,0.70
2018-02-21T03:35:01.609Z,0.70
2018-02-21T03:37:30.192Z,0.70
2018-02-21T03:39:58.561Z,0.70
2018-02-21T03:42:26.934Z,0.70
2018-02-21T03:44:55.321Z,0.70
2018-02-21T03:47:23.689Z,0.70
2018-02-21T03:49:52.079Z,0.70
2018-02-21T03:52:20.455Z,0.70
2018-02-21T03:54:48.859Z,0.70
2018-02-21T03:57:17.232Z,0.60
2018-02-21T03:59:45.601Z,0.60
2018-02-21T04:02:14.094Z,0.60
2018-02-21T04:04:42.472Z,0.60
2018-02-21T04:07:10.874Z,0.50
2018-02-21T04:09:39.241Z,0.50
2018-02-21T04:12:07.633Z,0.50
2018-02-21T04:14:36.301Z,0.50
2018-02-21T04:17:04.688Z,0.40
2018-02-21T04:19:33.082Z,0.40
2018-02-21T04:22:01.457Z,0.40
2018-02-21T04:24:30.457Z,0.40
2018-02-21T04:26:58.813Z,0.30
2018-02-21T04:29:27.677Z,0.30
2018-02-21T04:31:56.049Z,0.20
2018-02-21T04:34:24.419Z,0.20
2018-02-21T04:36:53.016Z,0.10
2018-02-21T04:39:21.565Z,0.10
2018-02-21T04:41:50.729Z,0.10
2018-02-21T04:44:19.100Z,0.10
2018-02-21T04:46:48.165Z,0.10
2018-02-21T04:49:16.533Z,0.10
2018-02-21T04:51:44.902Z,0.00
2018-02-21T04:54:14.228Z,0.10
2018-02-21T05:00:04.294Z,0.00
2018-02-21T05:02:33.542Z,0.10
2018-02-21T05:05:01.934Z,0.00
2018-02-21T05:07:30.313Z,0.00
2018-02-21T05:09:58.974Z,0.00
2018-02-21T05:12:27.565Z,0.10
2018-02-21T05:14:55.945Z,0.10
2018-02-21T05:17:24.343Z,0.20
2018-02-21T05:19:52.836Z,0.10
2018-02-21T05:22:21.234Z,0.10
2018-02-21T05:24:50.366Z,0.10
2018-02-21T05:27:18.777Z,0.10
2018-02-21T05:29:47.156Z,0.00
2018-02-21T05:32:15.535Z,0.00
2018-02-21T05:34:43.940Z,-0.10
2018-02-21T05:37:13.093Z,-0.10
2018-02-21T05:39:41.503Z,-0.10
2018-02-21T05:42:09.880Z,-0.10
2018-02-21T05:44:38.427Z,-0.10
2018-02-21T05:47:06.890Z,-0.20
2018-02-21T05:49:35.269Z,-0.20
2018-02-21T05:52:03.670Z,-0.20
2018-02-21T05:54:32.146Z,-0.30
2018-02-21T05:57:00.557Z,-0.30
2018-02-21T05:59:28.934Z,-0.20
2018-02-21T06:01:57.336Z,-0.20
2018-02-21T06:04:26.507Z,-0.20
2018-02-21T06:06:54.960Z,-0.20
2018-02-21T06:09:23.372Z,-0.20
2018-02-21T06:11:51.751Z,-0.20
2018-02-21T06:14:20.155Z,-0.30
2018-02-21T06:16:49.301Z,-0.30
2018-02-21T06:19:17.726Z,-0.30
2018-02-21T06:21:46.120Z,-0.30
2018-02-21T06:24:14.513Z,-0.20
2018-02-21T06:26:42.914Z,-0.20
2018-02-21T06:29:11.292Z,-0.20
2018-02-21T06:31:39.693Z,-0.20
2018-02-21T06:34:08.077Z,-0.20
2018-02-21T06:36:37.150Z,-0.20
2018-02-21T06:39:05.530Z,-0.10
2018-02-21T06:41:33.910Z,-0.20
2018-02-21T06:44:02.314Z,-0.20
2018-02-21T06:46:30.695Z,-0.20
2018-02-21T06:48:59.093Z,-0.10
2018-02-21T06:51:28.238Z,-0.20
2018-02-21T06:53:56.659Z,-0.20
2018-02-21T06:56:25.805Z,-0.10
2018-02-21T06:58:54.195Z,-0.20
2018-02-21T07:01:22.602Z,0.00
2018-02-21T07:03:50.979Z,-0.10
2018-02-21T07:06:21.324Z,-0.10
2018-02-21T07:08:51.589Z,0.00
2018-02-21T07:11:21.445Z,0.00
2018-02-21T07:13:49.842Z,0.00
2018-02-21T07:16:18.222Z,0.00
2018-02-21T07:18:46.620Z,0.10
2018-02-21T07:21:14.996Z,0.20
2018-02-21T07:23:43.395Z,0.20
2018-02-21T07:26:11.984Z,0.30
2018-02-21T07:28:40.465Z,0.30
2018-02-21T07:31:08.840Z,0.40
2018-02-21T07:33:37.241Z,0.40
2018-02-21T07:36:05.668Z,0.50
2018-02-21T07:38:34.792Z,0.70
2018-02-21T07:41:03.196Z,0.70
2018-02-21T07:43:31.669Z,0.80
2018-02-21T07:46:00.334Z,0.80
2018-02-21T07:48:28.702Z,0.90
2018-02-21T07:50:57.069Z,1.00
2018-02-21T07:53:25.472Z,1.20
2018-02-21T07:55:53.850Z,1.30
2018-02-21T07:58:22.239Z,1.40
2018-02-21T08:00:50.617Z,1.40
2018-02-21T08:03:19.025Z,1.50
2018-02-21T08:05:47.392Z,1.60
2018-02-21T08:08:15.763Z,1.70
2018-02-21T08:10:44.164Z,1.70
2018-02-21T08:13:13.302Z,1.70
2018-02-21T08:15:41.726Z,1.70
2018-02-21T08:18:10.110Z,1.70
2018-02-21T08:20:38.851Z,1.70
2018-02-21T08:23:07.213Z,1.70
2018-02-21T08:25:35.586Z,1.70
2018-02-21T08:28:03.974Z,1.80
2018-02-21T08:30:32.341Z,2.00
2018-02-21T08:33:00.743Z,2.00
2018-02-21T08:35:29.146Z,2.00
2018-02-21T08:37:57.705Z,2.00
2018-02-21T08:40:26.070Z,2.00
2018-02-21T08:42:54.437Z,2.10
2018-02-21T08:45:22.834Z,2.00
2018-02-21T08:47:51.211Z,2.10
2018-02-21T08:50:19.615Z,2.20
2018-02-21T08:52:47.988Z,2.30
2018-02-21T08:55:16.562Z,2.30
2018-02-21T08:57:44.935Z,2.30
2018-02-21T09:00:13.346Z,2.40
2018-02-21T09:02:41.768Z,2.50
2018-02-21T09:05:10.149Z,2.60
2018-02-21T09:07:38.542Z,2.70
2018-02-21T09:10:06.913Z,2.60
2018-02-21T09:12:35.523Z,2.60
2018-02-21T09:15:03.908Z,2.50
2018-02-21T09:17:32.279Z,2.40
2018-02-21T09:20:00.669Z,2.30
2018-02-21T09:22:29.035Z,2.10
2018-02-21T09:24:57.565Z,2.10
2018-02-21T09:27:26.715Z,2.30
2018-02-21T09:29:55.502Z,2.30
2018-02-21T09:32:23.878Z,2.50
2018-02-21T09:34:52.245Z,2.60
2018-02-21T09:37:20.641Z,2.80
2018-02-21T09:39:49.008Z,2.80
2018-02-21T09:42:17.394Z,3.00
2018-02-21T09:44:45.771Z,3.10
2018-02-21T09:47:14.353Z,3.30
2018-02-21T09:49:42.729Z,3.50
2018-02-21T09:52:11.108Z,4.00
2018-02-21T09:54:39.601Z,5.20
2018-02-21T09:57:07.969Z,6.80
2018-02-21T09:59:36.375Z,8.60
2018-02-21T10:02:04.759Z,10.60
2018-02-21T10:04:33.184Z,12.50
2018-02-21T10:07:01.562Z,13.80
2018-02-21T10:09:29.959Z,14.60
2018-02-21T10:11:58.372Z,15.20
2018-02-21T10:14:26.758Z,16.00
2018-02-21T10:16:55.698Z,16.90
2018-02-21T10:19:24.075Z,17.30
2018-02-21T10:21:52.875Z,17.80
2018-02-21T10:24:21.265Z,17.90
2018-02-21T10:26:49.671Z,17.70
2018-02-21T10:29:18.066Z,17.20
2018-02-21T10:31:47.231Z,17.90
2018-02-21T10:34:15.652Z,17.80
2018-02-21T10:36:44.025Z,18.40
2018-02-21T10:39:13.568Z,18.50
2018-02-21T10:41:42.000Z,18.60
2018-02-21T10:44:11.153Z,18.20
2018-02-21T10:46:39.551Z,18.20
2018-02-21T10:49:07.926Z,18.30
2018-02-21T10:51:36.338Z,18.20
2018-02-21T10:54:05.486Z,19.20
2018-02-21T10:56:34.056Z,19.20
2018-02-21T10:59:02.436Z,19.40
2018-02-21T11:01:30.828Z,19.10
2018-02-21T11:03:59.242Z,19.30
2018-02-21T11:06:27.614Z,20.10
2018-02-21T11:08:56.010Z,20.80
2018-02-21T11:11:25.155Z,22.00
2018-02-21T11:13:53.582Z,21.90
2018-02-21T11:16:21.967Z,22.20
2018-02-21T11:18:51.114Z,23.30
2018-02-21T11:21:19.525Z,23.30
2018-02-21T11:23:47.910Z,23.50
2018-02-21T11:26:17.086Z,23.70
2018-02-21T11:28:45.461Z,23.70
2018-02-21T11:31:13.858Z,23.60
2018-02-21T11:33:42.235Z,23.90
2018-02-21T11:36:10.614Z,24.60
2018-02-21T11:38:39.029Z,25.00
2018-02-21T11:41:07.405Z,25.60
2018-02-21T11:43:35.807Z,26.20
2018-02-21T11:46:04.190Z,26.50
2018-02-21T11:48:32.982Z,26.70
2018-02-21T11:51:01.359Z,26.80
2018-02-21T11:53:29.738Z,26.80
2018-02-21T11:55:58.144Z,27.00
2018-02-21T11:58:26.526Z,27.00
2018-02-21T12:00:54.930Z,26.60
2018-02-21T12:03:24.079Z,26.00
2018-02-21T12:05:52.509Z,25.90
2018-02-21T12:08:21.652Z,26.10
2018-02-21T12:10:50.028Z,26.00
2018-02-21T12:13:18.438Z,26.50
2018-02-21T12:15:46.811Z,26.70
2018-02-21T12:18:15.229Z,26.70
2018-02-21T12:20:43.610Z,26.90
2018-02-21T12:23:12.033Z,27.40
2018-02-21T12:25:40.405Z,27.70
2018-02-21T12:28:08.789Z,27.70
2018-02-21T12:30:37.190Z,27.80
2018-02-21T12:33:05.570Z,27.70
2018-02-21T12:35:33.969Z,26.90
2018-02-21T12:38:03.116Z,24.50
2018-02-21T12:40:37.155Z,24.50
2018-02-21T12:43:05.506Z,23.60
2018-02-21T12:45:34.266Z,22.50
2018-02-21T12:48:02.637Z,21.50
2018-02-21T12:50:31.022Z,20.20
2018-02-21T12:52:59.433Z,19.30
2018-02-21T12:55:27.865Z,19.40
2018-02-21T12:57:56.243Z,19.10
2018-02-21T13:00:24.630Z,19.10
2018-02-21T13:02:53.041Z,19.60
2018-02-21T13:05:21.415Z,19.70
2018-02-21T13:07:49.853Z,19.40
2018-02-21T13:10:19.016Z,18.70
2018-02-21T13:12:47.400Z,18.60
2018-02-21T13:15:15.803Z,19.10
2018-02-21T13:17:44.196Z,19.00
2018-02-21T13:20:12.642Z,18.10
2018-02-21T13:22:41.795Z,17.90
2018-02-21T13:25:10.197Z,17.90
2018-02-21T13:27:38.614Z,17.60
2018-02-21T13:30:07.861Z,17.90
2018-02-21T13:32:36.269Z,17.80
2018-02-21T13:35:05.462Z,19.50
2018-02-21T13:37:33.876Z,19.50
2018-02-21T13:40:03.021Z,18.80
2018-02-21T13:42:31.412Z,18.80
2018-02-21T13:45:00.217Z,17.80
2018-02-21T13:47:28.594Z,16.80
2018-02-21T13:49:57.001Z,15.70
2018-02-21T13:52:25.418Z,14.60
2018-02-21T13:54:53.988Z,14.10
2018-02-21T13:57:22.381Z,13.80
2018-02-21T13:59:50.936Z,13.90
2018-02-21T14:02:19.345Z,14.10
2018-02-21T14:04:47.727Z,14.20
2018-02-21T14:07:16.131Z,14.60
2018-02-21T14:09:44.530Z,15.00
2018-02-21T14:12:13.277Z,14.90
2018-02-21T14:14:41.687Z,14.60
2018-02-21T14:17:10.841Z,13.40
2018-02-21T14:19:39.245Z,13.40
2018-02-21T14:22:07.625Z,12.90
2018-02-21T14:24:36.030Z,12.70
2018-02-21T14:27:05.205Z,12.40
2018-02-21T14:29:33.748Z,12.40
2018-02-21T14:32:02.234Z,12.50
2018-02-21T14:34:30.645Z,12.80
2018-02-21T14:36:59.130Z,12.60
2018-02-21T14:39:28.277Z,12.10
2018-02-21T14:41:56.665Z,12.10
2018-02-21T14:44:25.135Z,11.60
2018-02-21T14:46:53.740Z,10.90
2018-02-21T14:49:22.125Z,10.40
2018-02-21T14:51:50.495Z,9.90
2018-02-21T14:54:19.766Z,9.60
2018-02-21T14:56:48.139Z,9.20
2018-02-21T14:59:16.563Z,8.80
2018-02-21T15:01:45.244Z,8.60
2018-02-21T15:04:13.915Z,8.10
2018-02-21T15:06:42.399Z,7.90
2018-02-21T15:09:10.776Z,7.70
2018-02-21T15:11:39.259Z,7.50
2018-02-21T15:14:07.882Z,7.40
2018-02-21T15:16:36.287Z,7.20
2018-02-21T15:19:04.670Z,7.00
2018-02-21T15:21:33.277Z,6.90
2018-02-21T15:24:01.859Z,6.70
2018-02-21T15:26:30.554Z,6.50
2018-02-21T15:28:59.094Z,6.30
2018-02-21T15:31:28.373Z,5.80
2018-02-21T15:33:56.966Z,5.70
2018-02-21T15:36:26.147Z,5.40
2018-02-21T15:38:54.825Z,5.40
2018-02-21T15:41:23.252Z,5.30
2018-02-21T15:43:52.358Z,4.90
2018-02-21T15:46:21.083Z,4.90
2018-02-21T15:48:50.234Z,4.80
2018-02-21T15:51:18.739Z,4.80
2018-02-21T15:53:47.270Z,4.60
2018-02-21T15:56:16.467Z,4.40
2018-02-21T15:58:45.670Z,4.30
2018-02-21T16:01:14.838Z,4.30
2018-02-21T16:03:43.230Z,4.20
2018-02-21T16:06:11.775Z,4.20
2018-02-21T16:08:40.209Z,4.10
2018-02-21T16:11:09.350Z,4.00
2018-02-21T16:13:37.782Z,4.00
2018-02-21T16:16:07.030Z,4.00
2018-02-21T16:18:35.628Z,4.00
2018-02-21T16:21:04.160Z,4.00
2018-02-21T16:23:33.913Z,3.90
2018-02-21T16:26:03.179Z,3.70
2018-02-21T16:28:31.594Z,3.70
2018-02-21T16:31:00.532Z,3.70
2018-02-21T16:33:29.742Z,3.50
2018-02-21T16:35:58.254Z,3.50
2018-02-21T16:38:26.652Z,3.50
2018-02-21T16:40:55.030Z,3.30
2018-02-21T16:43:23.456Z,3.30
2018-02-21T16:45:51.973Z,3.30
2018-02-21T16:48:21.124Z,3.20
2018-02-21T16:50:49.648Z,3.20
2018-02-21T16:53:18.714Z,3.10
2018-02-21T16:55:48.968Z,3.20
2018-02-21T16:58:17.698Z,3.20
2018-02-21T17:00:48.638Z,3.10
2018-02-21T17:03:18.609Z,3.10
2018-02-21T17:05:48.973Z,3.10
2018-02-21T17:08:17.835Z,3.10
2018-02-21T17:10:47.943Z,3.10
2018-02-21T17:13:17.549Z,3.00
2018-02-21T17:15:47.305Z,3.00
2018-02-21T17:18:16.218Z,3.00
2018-02-21T17:20:46.713Z,3.00
2018-02-21T17:23:15.260Z,3.00
2018-02-21T17:25:43.690Z,3.00
2018-02-21T17:28:13.148Z,2.90
2018-02-21T17:30:42.293Z,2.90
2018-02-21T17:33:11.128Z,2.90
2018-02-21T17:35:40.350Z,2.80
2018-02-21T17:38:09.011Z,2.90
2018-02-21T17:43:45.737Z,2.80
2018-02-21T17:46:14.226Z,2.80
2018-02-21T17:48:43.586Z,2.70
2018-02-21T17:51:11.962Z,2.70
2018-02-21T17:53:41.172Z,2.70
2018-02-21T17:56:11.142Z,2.70
2018-02-21T17:58:39.660Z,2.70
2018-02-21T18:01:08.086Z,2.70
2018-02-21T18:03:37.228Z,2.60
2018-02-21T18:06:05.769Z,2.50
2018-02-21T18:08:34.911Z,2.50
2018-02-21T18:11:03.281Z,2.50
2018-02-21T18:13:31.666Z,2.60
2018-02-21T18:16:00.026Z,2.60
2018-02-21T18:18:28.426Z,2.50
2018-02-21T18:20:56.794Z,2.50
2018-02-21T18:23:25.402Z,2.50
2018-02-21T18:25:53.817Z,2.50
2018-02-21T18:28:23.442Z,2.50
2018-02-21T18:30:52.023Z,2.50
2018-02-21T18:33:20.393Z,2.50
2018-02-21T18:35:49.556Z,2.40
2018-02-21T18:38:18.206Z,2.30
2018-02-21T18:40:46.800Z,2.30
2018-02-21T18:43:15.197Z,2.30
2018-02-21T18:45:43.583Z,2.30
2018-02-21T18:48:11.978Z,2.30
2018-02-21T18:50:40.386Z,2.20
2018-02-21T18:53:08.782Z,2.20
2018-02-21T18:55:37.278Z,2.20
2018-02-21T18:58:05.961Z,2.20
2018-02-21T19:00:34.450Z,2.20
2018-02-21T19:03:03.645Z,2.20
2018-02-21T19:05:32.088Z,2.20
2018-02-21T19:08:01.214Z,2.30
2018-02-21T19:10:29.607Z,2.30
2018-02-21T19:12:57.997Z,2.20
2018-02-21T19:15:26.892Z,2.30
2018-02-21T19:17:56.081Z,2.20
2018-02-21T19:20:24.571Z,2.20
2018-02-21T19:22:53.078Z,2.20
2018-02-21T19:25:21.485Z,2.30
2018-02-21T19:27:49.871Z,2.30
2018-02-21T19:30:18.327Z,2.20
2018-02-21T19:32:47.152Z,2.20
2018-02-21T19:35:15.567Z,2.20
2018-02-21T19:37:44.117Z,2.10
2018-02-21T19:40:13.106Z,2.10
2018-02-21T19:42:41.676Z,2.10
2018-02-21T19:45:10.086Z,2.10
2018-02-21T19:47:38.669Z,2.00
2018-02-21T19:50:07.820Z,2.00
2018-02-21T19:52:36.265Z,2.00
2018-02-21T19:55:06.135Z,1.90
2018-02-21T19:57:35.100Z,1.80
2018-02-21T20:00:03.616Z,1.80
2018-02-21T20:02:32.600Z,1.80
2018-02-21T20:05:01.639Z,1.70
2018-02-21T20:07:31.430Z,1.70
2018-02-21T20:10:00.869Z,1.60
2018-02-21T20:12:29.652Z,1.60
2018-02-21T20:14:58.633Z,1.50
2018-02-21T20:17:29.315Z,1.40
2018-02-21T20:20:03.646Z,1.40
2018-02-21T20:22:33.855Z,1.30
2018-02-21T20:25:02.870Z,1.30
2018-02-21T20:27:32.179Z,1.30
2018-02-21T20:30:01.578Z,1.20
2018-02-21T20:32:30.257Z,1.10
2018-02-21T20:34:59.804Z,1.20
2018-02-21T20:37:28.859Z,1.10
2018-02-21T20:39:58.769Z,1.10
2018-02-21T20:42:28.112Z,1.10
2018-02-21T20:44:57.395Z,1.10
2018-02-21T20:47:26.211Z,1.00
2018-02-21T20:49:55.326Z,1.10
2018-02-21T20:52:24.353Z,1.10
2018-02-21T20:54:53.569Z,1.00
2018-02-21T20:57:22.379Z,1.00
2018-02-21T20:59:51.580Z,0.90
2018-02-21T21:02:21.042Z,0.90
2018-02-21T21:04:49.921Z,0.90
2018-02-21T21:07:19.442Z,0.80
2018-02-21T21:09:47.862Z,0.80
2018-02-21T21:12:16.279Z,0.80
2018-02-21T21:14:44.649Z,0.70
2018-02-21T21:17:13.246Z,0.70
2018-02-21T21:19:41.778Z,0.70
2018-02-21T21:22:11.398Z,0.70
2018-02-21T21:24:39.938Z,0.70
2018-02-21T21:27:08.373Z,0.70
2018-02-21T21:29:36.852Z,0.60
2018-02-21T21:32:05.315Z,0.60
2018-02-21T21:34:33.754Z,0.60
2018-02-21T21:37:03.469Z,0.60
2018-02-21T21:39:33.047Z,0.60
2018-02-21T21:42:02.035Z,0.60
2018-02-21T21:44:31.103Z,0.60
2018-02-21T21:47:00.353Z,0.50
2018-02-21T21:49:32.868Z,0.60
2018-02-21T21:51:58.897Z,0.60
2018-02-21T21:54:28.342Z,0.60
2018-02-21T21:56:58.534Z,0.60
2018-02-21T21:59:27.889Z,0.60
2018-02-21T22:01:56.607Z,0.60
2018-02-21T22:04:26.086Z,0.60
2018-02-21T22:06:56.427Z,0.60
2018-02-21T22:09:26.057Z,0.60
2018-02-21T22:11:55.965Z,0.60
2018-02-21T22:14:26.283Z,0.60
2018-02-21T22:16:57.004Z,0.50
2018-02-21T22:19:26.938Z,0.50
2018-02-21T22:21:56.302Z,0.50
2018-02-21T22:24:26.145Z,0.50
2018-02-21T22:26:56.587Z,0.50
2018-02-21T22:29:26.381Z,0.40
2018-02-21T22:31:57.419Z,0.40
2018-02-21T22:34:27.839Z,0.40
2018-02-21T22:36:58.222Z,0.40
2018-02-21T22:39:27.878Z,0.30
2018-02-21T22:41:58.500Z,0.40
2018-02-21T22:44:28.528Z,0.40
2018-02-21T22:46:58.436Z,0.30
2018-02-21T22:49:28.541Z,0.40
2018-02-21T22:51:58.766Z,0.30
2018-02-21T22:54:28.859Z,0.40
2018-02-21T22:56:58.318Z,0.30
2018-02-21T22:59:27.917Z,0.40
2018-02-21T23:01:57.891Z,0.40
2018-02-21T23:04:28.011Z,0.40
2018-02-21T23:06:57.917Z,0.40
2018-02-21T23:09:28.563Z,0.40
2018-02-21T23:11:59.164Z,0.40
2018-02-21T23:14:28.512Z,0.40
2018-02-21T23:16:57.138Z,0.40
2018-02-21T23:19:25.522Z,0.30
2018-02-21T23:21:55.113Z,0.20
2018-02-21T23:24:25.326Z,0.30
2018-02-21T23:26:55.125Z,0.20
2018-02-21T23:29:25.011Z,0.20
2018-02-21T23:31:55.251Z,0.20
2018-02-21T23:34:25.613Z,0.10
2018-02-21T23:36:55.673Z,0.10
2018-02-21T23:39:25.758Z,0.10
2018-02-21T23:41:55.180Z,0.00
2018-02-21T23:44:24.672Z,0.00
2018-02-21T23:46:53.596Z,-0.10
2018-02-21T23:49:22.098Z,-0.10
2018-02-21T23:51:50.482Z,-0.10
2018-02-21T23:54:19.649Z,-0.30
2018-02-21T23:56:48.030Z,-0.30
2018-02-21T23:59:17.394Z,-0.30
